Portada
METAR-TAF:

METAR-TAF

Aeroports :

Waterville Robert LaFleur Airport

Waterville, Maine, Estats Units d'Amèrica

latitud: 44-32N, longitud: 069-41W, altitud: 101 m

Observació

L'informe es va fer fa 6 minuts, a les 10:56 UTC
Vent calma
Temperatura 11°C
Humitat 82%
Pressió 1025 hPa
Visibilitat: 16.1 km
Cel cobert a una alçada de 3900 ft

METAR: KWVL 231056Z AUTO 00000KT 10SM OVC039 11/08 A3027 RMK AO2 SLP280 T01060083

Hora: 07:02 (11:02 UTC)


TAF: manca

Observacions i pronòstics meteorològics de més de 4000 aeroports (METAR i TAF).

Les estacions disponibles són els punts grocs i vermells al mapa.

Posi el ratolí al punt desitjat per veure el nom de l'estació.

Feu clic per veure les observacions i els pronòstics meteorològics.

Per canviar el mapa: feu clic els botons verds amb una creu de color negre per apropar; al botó verd amb un guió per allunyar la imatge; o en les fletxes verdes per a mapes adjacents.


METAR-TAF: